18 augustus 2022

Tijd Code Weer Temp. Zicht Plafond Wind METAR/SPECI
21:20
L
19 °C 0 m - 350° 350° 4 kt METAR ETWM 181920Z AUTO 35004KT //// // ////// 19/16 Q1013 ///
20:20
L
21 °C 0 m - 010° 010° 5 kt METAR ETWM 181820Z AUTO 01005KT //// // ////// 21/15 Q1013 ///
19:20
L
22 °C 0 m - 340° 340° 4 kt METAR ETWM 181720Z AUTO 34004KT //// // ////// 22/15 Q1012 ///
18:20
L
24 °C 0 m - 340° 340° 5 kt METAR ETWM 181620Z AUTO 34005KT //// // ////// 24/16 Q1012 ///
17:20
L
24 °C 0 m - 320° 320° 5 kt METAR ETWM 181520Z AUTO 32005KT //// // ////// 24/16 Q1013 ///
16:20
L
23 °C 0 m - 240° 240° 1 kt METAR ETWM 181420Z AUTO 24001KT //// // ////// 23/16 Q1013 ///
15:20
L
23 °C 0 m - 340° 340° 4 kt METAR ETWM 181320Z AUTO 34004KT //// // ////// 23/16 Q1013 ///
14:20
V
21 °C 10 km+ 3.000 ft 280° 280° 5 kt METAR ETWM 181220Z 28005KT 9999 VCSH FEW017 BKN030 21/18 Q1013 BLU
13:20
M
20 °C 10 km+ 2.700 ft 260° 260° 4 kt METAR ETWM 181120Z 26004KT 9999 VCSH FEW007 SCT011 BKN027 20/18 Q1013 BLU
12:20
V
22 °C 10 km+ 3.300 ft 310° 310° 3 kt METAR ETWM 181020Z 31003KT 9999 VCSH SCT015 BKN033 22/17 Q1013 BLU
11:20
V
21 °C 10 km+ 3.100 ft 320° 320° 3 kt METAR ETWM 180920Z 32003KT 9999 SCT014 BKN031 21/17 Q1013 BLU
10:20
V
20 °C 10 km+ 3.200 ft 250° 250° 3 kt METAR ETWM 180820Z 25003KT 9999 SCT009 BKN032 20/18 Q1013 BLU
09:20
M
19 °C 10 km+ 1.900 ft 280° 280° 3 kt METAR ETWM 180720Z 28003KT 9999 SCT005 BKN019 BKN031 19/18 Q1012 WHT
08:48
L
19 °C 9 km 400 ft Var Var 3 kt METAR ETWM 180648Z VRB03KT 9000 BKN004 BKN007 BKN020 19/18 Q1012 YLO
08:20
I
18 °C 9 km 800 ft Var Var 2 kt METAR ETWM 180620Z VRB02KT 9000 FEW003 BKN008 18/18 Q1012 GRN
07:20
I
18 °C 6 km 800 ft Var Var 2 kt METAR ETWM 180520Z VRB02KT 6000 FEW003 BKN008 18/17 Q1012 GRN
06:20
L
18 °C 4,1 km 300 ft 250° 250° 2 kt METAR ETWM 180420Z 25002KT 4100 BR BKN003 BKN007 18/17 Q1012 YLO
05:20
L
18 °C 0 m - Var Var 2 kt METAR ETWM 180320Z AUTO VRB02KT //// // ////// 18/17 Q1011 ///
04:20
L
18 °C 0 m - 280° 280° 3 kt METAR ETWM 180220Z AUTO 28003KT //// // ////// 18/17 Q1011 ///
03:20
L
18 °C 0 m - 240° 240° 3 kt METAR ETWM 180120Z AUTO 24003KT //// // ////// 18/17 Q1011 ///
02:20
L
18 °C 0 m - Var Var 2 kt METAR ETWM 180020Z AUTO VRB02KT //// // ////// 18/17 Q1012 ///
01:20
L
18 °C 0 m - 310° 310° 2 kt METAR ETWM 172320Z AUTO 31002KT //// // ////// 18/17 Q1011 ///
00:20
L
18 °C 0 m - 310° 310° 3 kt METAR ETWM 172220Z AUTO 31003KT //// // ////// 18/17 Q1011 ///

17 augustus 2022

Tijd Code Weer Temp. Zicht Plafond Wind METAR/SPECI
23:20
L
17 °C 0 m - Var Var 3 kt METAR ETWM 172120Z AUTO VRB03KT //// // ////// 17/17 Q1011 ///
22:20
L
17 °C 0 m - 260° 260° 4 kt METAR ETWM 172020Z AUTO 26004KT //// // ////// 17/17 Q1011 ///
21:20
L
18 °C 0 m - 250° 250° 3 kt METAR ETWM 171920Z AUTO 25003KT //// // ////// 18/17 Q1011 ///
20:20
L
18 °C 0 m - 350° 350° 2 kt METAR ETWM 171820Z AUTO 35002KT //// // ////// 18/17 Q1010 ///
19:20
L
18 °C 0 m - 330° 330° 5 kt METAR ETWM 171720Z AUTO 33005KT //// // ////// 18/17 Q1010 ///
18:20
L
19 °C 0 m - 010° 010° 2 kt METAR ETWM 171620Z AUTO 01002KT //// // ////// 19/18 Q1010 ///
17:20
L
18 °C 0 m - 320° 320° 2 kt METAR ETWM 171520Z AUTO 32002KT //// // ////// 18/17 Q1009 ///
16:20
L
25 °C 0 m - 010° 010° 8 - 20 kt METAR ETWM 171420Z AUTO 01008G20KT //// // ////// 25/18 Q1010 ///
15:20
L
27 °C 0 m - 020° 020° 7 kt METAR ETWM 171320Z AUTO 02007KT //// // ////// 27/17 Q1010 ///
14:20
V
27 °C 10 km+ 15.000 ft 010° 010° 7 kt METAR ETWM 171220Z 01007KT 9999 FEW100 SCT120 BKN150 27/16 Q1010 BLU
13:20
V
26 °C 10 km+ 14.000 ft 360° 360° 6 kt METAR ETWM 171120Z 36006KT 9999 FEW100 BKN140 BKN240 26/16 Q1010 BLU
12:20
V
25 °C 10 km+ 14.000 ft 010° 010° 6 kt METAR ETWM 171020Z 01006KT 9999 FEW080 SCT096 BKN140 25/17 Q1010 BLU
11:20
V
24 °C 10 km+ 17.000 ft 060° 060° 6 kt METAR ETWM 170920Z 06006KT 9999 FEW080 SCT100 OVC170 24/17 Q1010 BLU
10:20
V
22 °C 9 km 12.000 ft 030° 030° 7 kt METAR ETWM 170820Z 03007KT 9000 FEW080 BKN120 BKN180 22/17 Q1010 BLU
09:20
V
19 °C 8 km 12.000 ft 010° 010° 7 kt METAR ETWM 170720Z 01007KT 8000 FEW074 BKN120 19/17 Q1010 BLU
08:20
V
19 °C 8 km 7.500 ft 030° 030° 5 kt METAR ETWM 170620Z 03005KT 8000 BKN075 19/17 Q1010 BLU
07:20
M
18 °C 6 km 7.200 ft 040° 040° 3 kt METAR ETWM 170520Z 04003KT 6000 BKN072 18/17 Q1010 WHT
06:20
I
17 °C 4,1 km 14.000 ft 010° 010° 3 kt METAR ETWM 170420Z 01003KT 4100 BR SCT077 BKN140 BKN240 17/16 Q1010 GRN
05:20
L
16 °C 0 m - 030° 030° 2 kt METAR ETWM 170320Z AUTO 03002KT //// // ////// 16/15 Q1010 ///
04:20
L
16 °C 0 m - 010° 010° 2 kt METAR ETWM 170220Z AUTO 01002KT //// // ////// 16/15 Q1010 ///
03:20
L
16 °C 0 m - 010° 010° 3 kt METAR ETWM 170120Z AUTO 01003KT //// // ////// 16/16 Q1010 ///
02:20
L
17 °C 0 m - 040° 040° 2 kt METAR ETWM 170020Z AUTO 04002KT //// // ////// 17/16 Q1010 ///
01:20
L
19 °C 0 m - 050° 050° 2 kt METAR ETWM 162320Z AUTO 05002KT //// // ////// 19/17 Q1011 ///
00:20
L
19 °C 0 m - 320° 320° 1 kt METAR ETWM 162220Z AUTO 32001KT //// // ////// 19/17 Q1011 ///

16 augustus 2022

Tijd Code Weer Temp. Zicht Plafond Wind METAR/SPECI
23:20
L
21 °C 0 m - 020° 020° 3 kt METAR ETWM 162120Z AUTO 02003KT //// // ////// 21/18 Q1010 ///
22:20
L
22 °C 0 m - 010° 010° 5 kt METAR ETWM 162020Z AUTO 01005KT //// // ////// 22/18 Q1010 ///
21:20
L
23 °C 0 m - 340° 340° 2 kt METAR ETWM 161920Z AUTO 34002KT //// // ////// 23/15 Q1009 ///
20:20
L
26 °C 0 m - 340° 340° 3 kt METAR ETWM 161820Z AUTO 34003KT //// // ////// 26/15 Q1009 ///
19:20
L
27 °C 0 m - 290° 290° 3 kt METAR ETWM 161720Z AUTO 29003KT //// // ////// 27/14 Q1008 ///
18:20
L
29 °C 0 m - 220° 220° 3 kt METAR ETWM 161620Z AUTO 22003KT //// // ////// 29/12 Q1008 ///
17:20
L
30 °C 0 m - 260° 260° 5 kt METAR ETWM 161520Z AUTO 26005KT //// // ////// 30/11 Q1008 ///
Oudere gegevens

Met cookies volgen wij en derde partijen jouw internetgedrag binnen onze site. Als je verdergaat gaan we ervan uit dat je dit goedvindt. Meer info